Map

Track Data

SID SEASON NUMBER BASIN SUBBASIN NAME ISO_TIME NATURE LAT LON WMO_WIND WMO_PRES WMO_AGENCY TRACK_TYPE DIST2LAND LANDFALL IFLAG USA_AGENCY USA_ATCF_ID USA_LAT USA_LON USA_RECORD USA_STATUS USA_WIND USA_PRES USA_SSHS USA_R34_NE USA_R34_SE USA_R34_SW USA_R34_NW USA_R50_NE USA_R50_SE USA_R50_SW USA_R50_NW USA_R64_NE USA_R64_SE USA_R64_SW USA_R64_NW USA_POCI USA_ROCI USA_RMW USA_EYE TOKYO_LAT TOKYO_LON TOKYO_GRADE TOKYO_WIND TOKYO_PRES TOKYO_R50_DIR TOKYO_R50_LONG TOKYO_R50_SHORT TOKYO_R30_DIR TOKYO_R30_LONG TOKYO_R30_SHORT TOKYO_LAND CMA_LAT CMA_LON CMA_CAT CMA_WIND CMA_PRES HKO_LAT HKO_LON HKO_CAT HKO_WIND HKO_PRES NEWDELHI_LAT NEWDELHI_LON NEWDELHI_GRADE NEWDELHI_WIND NEWDELHI_PRES NEWDELHI_CI NEWDELHI_DP NEWDELHI_POCI REUNION_LAT REUNION_LON REUNION_TYPE REUNION_WIND REUNION_PRES REUNION_TNUM REUNION_CI REUNION_RMW REUNION_R34_NE REUNION_R34_SE REUNION_R34_SW REUNION_R34_NW REUNION_R50_NE REUNION_R50_SE REUNION_R50_SW REUNION_R50_NW REUNION_R64_NE REUNION_R64_SE REUNION_R64_SW REUNION_R64_NW BOM_LAT BOM_LON BOM_TYPE BOM_WIND BOM_PRES BOM_TNUM BOM_CI BOM_RMW BOM_R34_NE BOM_R34_SE BOM_R34_SW BOM_R34_NW BOM_R50_NE BOM_R50_SE BOM_R50_SW BOM_R50_NW BOM_R64_NE BOM_R64_SE BOM_R64_SW BOM_R64_NW BOM_ROCI BOM_POCI BOM_EYE BOM_POS_METHOD BOM_PRES_METHOD NADI_LAT NADI_LON NADI_CAT NADI_WIND NADI_PRES WELLINGTON_LAT WELLINGTON_LON WELLINGTON_WIND WELLINGTON_PRES DS824_LAT DS824_LON DS824_STAGE DS824_WIND DS824_PRES TD9636_LAT TD9636_LON TD9636_STAGE TD9636_WIND TD9636_PRES TD9635_LAT TD9635_LON TD9635_WIND TD9635_PRES TD9635_ROCI NEUMANN_LAT NEUMANN_LON NEUMANN_CLASS NEUMANN_WIND NEUMANN_PRES MLC_LAT MLC_LON MLC_CLASS MLC_WIND MLC_PRES USA_GUST BOM_GUST BOM_GUST_PER REUNION_GUST REUNION_GUST_PER USA_SEAHGT USA_SEARAD_NE USA_SEARAD_SE USA_SEARAD_SW USA_SEARAD_NW STORM_SPEED STORM_DIR
1955234N11318 1955 57 NA NA EDITH 1955-08-21 12:00:00 TS 11.4000 -42.0000 25 hurdat_atl main 1297 1275 O_____________ hurdat_atl AL041955 11.4000 -42.0000 TD 25 -1 12 300
1955234N11318 1955 57 NA NA EDITH 1955-08-21 15:00:00 TS 11.7102 -42.5497 main 1275 1248 P_____________ AL041955 11.7102 -42.5497 TD 25 -1 12 299
1955234N11318 1955 57 NA NA EDITH 1955-08-21 18:00:00 TS 12.0000 -43.1000 25 hurdat_atl main 1248 1225 O_____________ hurdat_atl AL041955 12.0000 -43.1000 TD 25 -1 12 297
1955234N11318 1955 57 NA NA EDITH 1955-08-21 21:00:00 TS 12.2574 -43.6501 main 1225 1204 P_____________ AL041955 12.2574 -43.6501 TD 25 -1 12 295
1955234N11318 1955 57 NA NA EDITH 1955-08-22 00:00:00 TS 12.5000 -44.2000 25 hurdat_atl main 1205 1188 O_____________ hurdat_atl AL041955 12.5000 -44.2000 TD 25 -1 12 295
1955234N11318 1955 57 NA NA EDITH 1955-08-22 03:00:00 TS 12.7498 -44.7426 main 1188 1173 P_____________ AL041955 12.7498 -44.7426 TD 25 -1 12 295
1955234N11318 1955 57 NA NA EDITH 1955-08-22 06:00:00 TS 13.0000 -45.3000 25 hurdat_atl main 1176 1159 O_____________ hurdat_atl AL041955 13.0000 -45.3000 TD 25 -1 12 294
1955234N11318 1955 57 NA NA EDITH 1955-08-22 09:00:00 TS 13.2499 -45.8926 main 1159 1143 P_____________ AL041955 13.2499 -45.8926 TD 25 -1 13 293
1955234N11318 1955 57 NA NA EDITH 1955-08-22 12:00:00 TS 13.5000 -46.5000 25 hurdat_atl main 1145 1127 O_____________ hurdat_atl AL041955 13.5000 -46.5000 TD 25 -1 13 293
1955234N11318 1955 57 NA NA EDITH 1955-08-22 15:00:00 TS 13.7499 -47.1076 main 1127 1118 P_____________ AL041955 13.7499 -47.1076 TD 25 -1 13 293
1955234N11318 1955 57 NA NA EDITH 1955-08-22 18:00:00 TS 14.0000 -47.7000 25 hurdat_atl main 1122 1117 O_____________ hurdat_atl AL041955 14.0000 -47.7000 TD 25 -1 12 294
1955234N11318 1955 57 NA NA EDITH 1955-08-22 21:00:00 TS 14.2573 -48.2576 main 1122 1113 P_____________ AL041955 14.2573 -48.2576 TD 25 -1 12 295
1955234N11318 1955 57 NA NA EDITH 1955-08-23 00:00:00 TS 14.5000 -48.8000 25 hurdat_atl main 1119 1113 O_____________ hurdat_atl AL041955 14.5000 -48.8000 TD 25 -1 12 293
1955234N11318 1955 57 NA NA EDITH 1955-08-23 03:00:00 TS 14.7074 -49.3502 main 1116 1111 P_____________ AL041955 14.7074 -49.3502 TD 27 -1 11 291
1955234N11318 1955 57 NA NA EDITH 1955-08-23 06:00:00 TS 14.9000 -49.9000 30 hurdat_atl main 1112 1104 O_____________ hurdat_atl AL041955 14.9000 -49.9000 TD 30 -1 11 290
1955234N11318 1955 57 NA NA EDITH 1955-08-23 09:00:00 TS 15.0924 -50.4502 main 1106 1102 P_____________ AL041955 15.0924 -50.4502 TD 37 0 11 291
1955234N11318 1955 57 NA NA EDITH 1955-08-23 12:00:00 TS 15.3000 -51.0000 45 hurdat_atl main 1109 1105 O_____________ hurdat_atl AL041955 15.3000 -51.0000 TS 45 0 11 292
1955234N11318 1955 57 NA NA EDITH 1955-08-23 15:00:00 TS 15.5199 -51.5503 main 1112 1112 P_____________ AL041955 15.5199 -51.5503 TS 45 0 12 295
1955234N11318 1955 57 NA NA EDITH 1955-08-23 18:00:00 TS 15.8000 -52.1000 45 hurdat_atl main 1119 1091 O_____________ hurdat_atl AL041955 15.8000 -52.1000 TS 45 0 12 301
1955234N11318 1955 57 NA NA EDITH 1955-08-23 21:00:00 TS 16.1550 -52.6651 main 1088 1070 P_____________ AL041955 16.1550 -52.6651 TS 45 0 13 307
1955234N11318 1955 57 NA NA EDITH 1955-08-24 00:00:00 TS 16.6000 -53.2000 45 hurdat_atl main 1070 1065 O_____________ hurdat_atl AL041955 16.6000 -53.2000 TS 45 0 14 315
1955234N11318 1955 57 NA NA EDITH 1955-08-24 03:00:00 TS 17.1123 -53.6653 main 1064 1064 P_____________ AL041955 17.1123 -53.6653 TS 45 0 14 322
1955234N11318 1955 57 NA NA EDITH 1955-08-24 06:00:00 TS 17.7000 -54.1000 45 hurdat_atl main 1080 1080 O_____________ hurdat_atl AL041955 17.7000 -54.1000 TS 45 0 15 326
1955234N11318 1955 57 NA NA EDITH 1955-08-24 09:00:00 TS 18.3424 -54.5502 main 1094 1094 P_____________ AL041955 18.3424 -54.5502 TS 45 0 16 327
1955234N11318 1955 57 NA NA EDITH 1955-08-24 12:00:00 TS 19.0000 -55.0000 45 hurdat_atl main 1118 1079 O_____________ hurdat_atl AL041955 19.0000 -55.0000 TS 45 0 15 326
1955234N11318 1955 57 NA NA EDITH 1955-08-24 15:00:00 TS 19.6148 -55.4429 main 1080 1037 P_____________ AL041955 19.6148 -55.4429 TS 45 0 15 325
1955234N11318 1955 57 NA NA EDITH 1955-08-24 18:00:00 TS 20.2000 -55.9000 45 hurdat_atl main 1037 997 O_____________ hurdat_atl AL041955 20.2000 -55.9000 TS 45 0 15 322
1955234N11318 1955 57 NA NA EDITH 1955-08-24 21:00:00 TS 20.7648 -56.3854 main 1000 965 P_____________ AL041955 20.7648 -56.3854 TS 47 0 14 320
1955234N11318 1955 57 NA NA EDITH 1955-08-25 00:00:00 TS 21.3000 -56.9000 50 hurdat_atl main 965 936 O_____________ hurdat_atl AL041955 21.3000 -56.9000 TS 50 0 15 317
1955234N11318 1955 57 NA NA EDITH 1955-08-25 03:00:00 TS 21.8374 -57.4500 main 936 904 P_____________ AL041955 21.8374 -57.4500 TS 50 0 14 314
1955234N11318 1955 57 NA NA EDITH 1955-08-25 06:00:00 TS 22.3000 -58.0000 50 hurdat_atl main 904 875 O_____________ hurdat_atl AL041955 22.3000 -58.0000 TS 50 0 13 309
1955234N11318 1955 57 NA NA EDITH 1955-08-25 09:00:00 TS 22.6373 -58.5080 main 875 851 P_____________ AL041955 22.6373 -58.5080 TS 50 0 11 303
1955234N11318 1955 57 NA NA EDITH 1955-08-25 12:00:00 TS 22.9000 -59.0000 50 hurdat_atl main 851 823 O_____________ hurdat_atl AL041955 22.9000 -59.0000 TS 50 0 11 300
1955234N11318 1955 57 NA NA EDITH 1955-08-25 15:00:00 TS 23.1649 -59.5076 main 830 806 P_____________ AL041955 23.1649 -59.5076 TS 50 0 10 299
1955234N11318 1955 57 NA NA EDITH 1955-08-25 18:00:00 TS 23.4000 -60.0000 50 998 hurdat_atl main 806 792 O_____________ hurdat_atl AL041955 23.4000 -60.0000 TS 50 998 0 10 297
1955234N11318 1955 57 NA NA EDITH 1955-08-25 21:00:00 TS 23.6074 -60.4652 main 786 773 P_____________ AL041955 23.6074 -60.4652 TS 52 0 9 296
1955234N11318 1955 57 NA NA EDITH 1955-08-26 00:00:00 TS 23.8000 -60.9000 55 hurdat_atl main 775 765 O_____________ hurdat_atl AL041955 23.8000 -60.9000 TS 55 0 9 296
1955234N11318 1955 57 NA NA EDITH 1955-08-26 03:00:00 TS 23.9924 -61.3152 main 768 760 P_____________ AL041955 23.9924 -61.3152 TS 57 0 8 299
1955234N11318 1955 57 NA NA EDITH 1955-08-26 06:00:00 TS 24.2000 -61.7000 60 hurdat_atl main 763 758 O_____________ hurdat_atl AL041955 24.2000 -61.7000 TS 60 0 8 303
1955234N11318 1955 57 NA NA EDITH 1955-08-26 09:00:00 TS 24.4349 -62.0577 main 762 762 P_____________ AL041955 24.4349 -62.0577 TS 62 0 8 308
1955234N11318 1955 57 NA NA EDITH 1955-08-26 12:00:00 TS 24.7000 -62.4000 65 hurdat_atl main 778 773 O_____________ hurdat_atl AL041955 24.7000 -62.4000 HU 65 1 9 310
1955234N11318 1955 57 NA NA EDITH 1955-08-26 15:00:00 TS 24.9926 -62.7799 main 792 792 P_____________ AL041955 24.9926 -62.7799 HU 65 1 9 313
1955234N11318 1955 57 NA NA EDITH 1955-08-26 18:00:00 TS 25.3000 -63.1000 65 987 hurdat_atl main 813 813 O_____________ hurdat_atl AL041955 25.3000 -63.1000 HU 65 987 1 8 324
1955234N11318 1955 57 NA NA EDITH 1955-08-26 21:00:00 TS 25.6149 -63.2877 main 839 839 P_____________ AL041955 25.6149 -63.2877 HU 62 0 7 336
1955234N11318 1955 57 NA NA EDITH 1955-08-27 00:00:00 TS 25.9000 -63.4000 60 hurdat_atl main 868 868 O_____________ hurdat_atl AL041955 25.9000 -63.4000 TS 60 0 5 338
1955234N11318 1955 57 NA NA EDITH 1955-08-27 03:00:00 TS 26.1150 -63.5076 main 887 887 P_____________ AL041955 26.1150 -63.5076 TS 57 0 4 336
1955234N11318 1955 57 NA NA EDITH 1955-08-27 06:00:00 TS 26.3000 -63.6000 55 hurdat_atl main 906 906 O_____________ hurdat_atl AL041955 26.3000 -63.6000 TS 55 0 4 336
1955234N11318 1955 57 NA NA EDITH 1955-08-27 09:00:00 TS 26.5000 -63.7000 main 926 926 P_____________ AL041955 26.5000 -63.7000 TS 52 0 4 336
1955234N11318 1955 57 NA NA EDITH 1955-08-27 12:00:00 TS 26.7000 -63.8000 50 992 hurdat_atl main 946 946 O_____________ hurdat_atl AL041955 26.7000 -63.8000 TS 50 992 0 4 337
1955234N11318 1955 57 NA NA EDITH 1955-08-27 15:00:00 TS 26.9075 -63.9000 main 966 966 P_____________ AL041955 26.9075 -63.9000 TS 50 992 0 4 336
1955234N11318 1955 57 NA NA EDITH 1955-08-27 18:00:00 TS 27.1000 -64.0000 50 993 hurdat_atl main 986 986 O_____________ hurdat_atl AL041955 27.1000 -64.0000 TS 50 993 0 4 332
1955234N11318 1955 57 NA NA EDITH 1955-08-27 21:00:00 TS 27.2650 -64.1075 main 1006 1005 P_____________ AL041955 27.2650 -64.1075 TS 50 992 0 3 330
1955234N11318 1955 57 NA NA EDITH 1955-08-28 00:00:00 TS 27.4000 -64.2000 50 991 hurdat_atl main 1016 1016 O_____________ hurdat_atl AL041955 27.4000 -64.2000 TS 50 991 0 3 328
1955234N11318 1955 57 NA NA EDITH 1955-08-28 03:00:00 TS 27.5000 -64.2725 main 1025 1025 P_____________ AL041955 27.5000 -64.2725 TS 50 0 2 335
1955234N11318 1955 57 NA NA EDITH 1955-08-28 06:00:00 TS 27.6000 -64.3000 50 hurdat_atl main 1036 1036 O_____________ hurdat_atl AL041955 27.6000 -64.3000 TS 50 0 2 0
1955234N11318 1955 57 NA NA EDITH 1955-08-28 09:00:00 TS 27.7350 -64.2725 main 1047 1047 P_____________ AL041955 27.7350 -64.2725 TS 52 0 3 16
1955234N11318 1955 57 NA NA EDITH 1955-08-28 12:00:00 TS 27.9000 -64.2000 55 hurdat_atl main 1071 1071 O_____________ hurdat_atl AL041955 27.9000 -64.2000 TS 55 0 4 23
1955234N11318 1955 57 NA NA EDITH 1955-08-28 15:00:00 TS 28.0850 -64.1075 main 1094 1094 P_____________ AL041955 28.0850 -64.1075 TS 55 0 4 24
1955234N11318 1955 57 NA NA EDITH 1955-08-28 18:00:00 TS 28.3000 -64.0000 55 990 hurdat_atl main 1118 1118 O_____________ hurdat_atl AL041955 28.3000 -64.0000 TS 55 990 0 5 22
1955234N11318 1955 57 NA NA EDITH 1955-08-28 21:00:00 TS 28.5350 -63.9000 main 1142 1142 P_____________ AL041955 28.5350 -63.9000 TS 57 0 5 20
1955234N11318 1955 57 NA NA EDITH 1955-08-29 00:00:00 TS 28.8000 -63.8000 60 hurdat_atl main 1176 1176 O_____________ hurdat_atl AL041955 28.8000 -63.8000 TS 60 0 6 16
1955234N11318 1955 57 NA NA EDITH 1955-08-29 03:00:00 TS 29.0774 -63.7222 main 1211 1211 P_____________ AL041955 29.0774 -63.7222 TS 62 0 6 16
1955234N11318 1955 57 NA NA EDITH 1955-08-29 06:00:00 TS 29.4000 -63.6000 65 hurdat_atl main 1245 1245 O_____________ hurdat_atl AL041955 29.4000 -63.6000 HU 65 1 7 23
1955234N11318 1955 57 NA NA EDITH 1955-08-29 09:00:00 TS 29.7625 -63.3872 main 1293 1293 P_____________ AL041955 29.7625 -63.3872 HU 67 1 9 28
1955234N11318 1955 57 NA NA EDITH 1955-08-29 12:00:00 TS 30.2000 -63.1000 70 hurdat_atl main 1310 1304 O_____________ hurdat_atl AL041955 30.2000 -63.1000 HU 70 1 11 29
1955234N11318 1955 57 NA NA EDITH 1955-08-29 15:00:00 TS 30.7274 -62.7798 main 1307 1301 P_____________ AL041955 30.7274 -62.7798 HU 72 1 13 29
1955234N11318 1955 57 NA NA EDITH 1955-08-29 18:00:00 TS 31.3000 -62.4000 75 hurdat_atl main 1309 1305 O_____________ hurdat_atl AL041955 31.3000 -62.4000 HU 75 1 13 32
1955234N11318 1955 57 NA NA EDITH 1955-08-29 21:00:00 TS 31.8424 -61.9720 main 1310 1278 P_____________ AL041955 31.8424 -61.9720 HU 77 1 13 35
1955234N11318 1955 57 NA NA EDITH 1955-08-30 00:00:00 TS 32.4000 -61.5000 80 hurdat_atl main 1278 1235 O_____________ hurdat_atl AL041955 32.4000 -61.5000 HU 80 1 14 35
1955234N11318 1955 57 NA NA EDITH 1955-08-30 03:00:00 TS 32.9773 -61.0141 main 1227 1177 P_____________ AL041955 32.9773 -61.0141 HU 82 1 15 35
1955234N11318 1955 57 NA NA EDITH 1955-08-30 06:00:00 TS 33.6000 -60.5000 85 hurdat_atl main 1177 1127 O_____________ hurdat_atl AL041955 33.6000 -60.5000 HU 85 2 16 34
1955234N11318 1955 57 NA NA EDITH 1955-08-30 09:00:00 TS 34.2772 -59.9715 main 1121 1072 P_____________ AL041955 34.2772 -59.9715 HU 85 2 17 33
1955234N11318 1955 57 NA NA EDITH 1955-08-30 12:00:00 TS 35.0000 -59.4000 85 967 hurdat_atl main 1072 1025 O_____________ hurdat_atl AL041955 35.0000 -59.4000 HU 85 967 2 17 33
1955234N11318 1955 57 NA NA EDITH 1955-08-30 15:00:00 TS 35.7412 -58.8225 main 1029 989 P_____________ AL041955 35.7412 -58.8225 HU 85 2 18 35
1955234N11318 1955 57 NA NA EDITH 1955-08-30 18:00:00 TS 36.5000 -58.1000 85 hurdat_atl main 989 947 O_____________ hurdat_atl AL041955 36.5000 -58.1000 HU 85 2 21 43
1955234N11318 1955 57 NA NA EDITH 1955-08-30 21:00:00 TS 37.2436 -57.0875 main 950 901 P_____________ AL041955 37.2436 -57.0875 HU 80 1 22 48
1955234N11318 1955 57 NA NA EDITH 1955-08-31 00:00:00 TS 38.0000 -56.0000 75 hurdat_atl main 905 865 O_____________ hurdat_atl AL041955 38.0000 -56.0000 HU 75 1 23 45
1955234N11318 1955 57 NA NA EDITH 1955-08-31 03:00:00 TS 38.8365 -55.0622 main 865 779 P_____________ AL041955 38.8365 -55.0622 HU 70 1 21 41
1955234N11318 1955 57 NA NA EDITH 1955-08-31 06:00:00 TS 39.6000 -54.2000 65 hurdat_atl main 779 711 O_____________ hurdat_atl AL041955 39.6000 -54.2000 HU 65 1 19 44
1955234N11318 1955 57 NA NA EDITH 1955-08-31 09:00:00 TS 40.2046 -53.3543 main 711 668 P_____________ AL041955 40.2046 -53.3543 HU 60 0 16 51
1955234N11318 1955 57 NA NA EDITH 1955-08-31 12:00:00 ET 40.6000 -52.6000 55 hurdat_atl main 668 649 O_____________ hurdat_atl AL041955 40.6000 -52.6000 EX 55 -4 12 60
1955234N11318 1955 57 NA NA EDITH 1955-08-31 15:00:00 ET 40.7964 -51.9838 main 651 651 P_____________ AL041955 40.7964 -51.9838 EX 52 -4 9 78
1955234N11318 1955 57 NA NA EDITH 1955-08-31 18:00:00 ET 40.8000 -51.4000 50 hurdat_atl main 660 660 O_____________ hurdat_atl AL041955 40.8000 -51.4000 EX 50 -4 11 93
1955234N11318 1955 57 NA NA EDITH 1955-08-31 21:00:00 ET 40.7336 -50.5859 main 688 688 P_____________ AL041955 40.7336 -50.5859 EX 47 -4 11 106
1955234N11318 1955 57 NA NA EDITH 1955-09-01 00:00:00 ET 40.5000 -50.0000 45 hurdat_atl main 725 725 O_____________ hurdat_atl AL041955 40.5000 -50.0000 EX 45 -4 8 145
1955234N11318 1955 57 NA NA EDITH 1955-09-01 03:00:00 ET 40.1094 -50.0085 main 767 767 P_____________ AL041955 40.1094 -50.0085 EX 42 -4 9 194
1955234N11318 1955 57 NA NA EDITH 1955-09-01 06:00:00 ET 39.6000 -50.3000 40 hurdat_atl main 812 812 O_____________ hurdat_atl AL041955 39.6000 -50.3000 EX 40 -4 11 200
1955234N11318 1955 57 NA NA EDITH 1955-09-01 09:00:00 ET 39.0424 -50.5124 main 873 873 P_____________ AL041955 39.0424 -50.5124 EX 40 -4 12 199
1955234N11318 1955 57 NA NA EDITH 1955-09-01 12:00:00 ET 38.5000 -50.8000 40 hurdat_atl main 921 921 O_____________ hurdat_atl AL041955 38.5000 -50.8000 EX 40 -4 11 207
1955234N11318 1955 57 NA NA EDITH 1955-09-01 15:00:00 ET 38.0549 -51.1624 main 959 959 P_____________ AL041955 38.0549 -51.1624 EX 40 -4 10 218
1955234N11318 1955 57 NA NA EDITH 1955-09-01 18:00:00 ET 37.7000 -51.6000 40 hurdat_atl main 998 997 O_____________ hurdat_atl AL041955 37.7000 -51.6000 EX 40 -4 10 229
1955234N11318 1955 57 NA NA EDITH 1955-09-01 21:00:00 ET 37.4051 -52.0924 main 1027 1026 P_____________ AL041955 37.4051 -52.0924 EX 40 -4 9 238
1955234N11318 1955 57 NA NA EDITH 1955-09-02 00:00:00 ET 37.2000 -52.6000 40 hurdat_atl main 1046 1046 O_____________ hurdat_atl AL041955 37.2000 -52.6000 EX 40 -4 8 245
1955234N11318 1955 57 NA NA EDITH 1955-09-02 03:00:00 ET 37.0472 -53.0500 main 1067 1067 P_____________ AL041955 37.0472 -53.0500 EX 40 -4 7 254
1955234N11318 1955 57 NA NA EDITH 1955-09-02 06:00:00 ET 37.0000 -53.5000 40 hurdat_atl main 1067 1067 O_____________ hurdat_atl AL041955 37.0000 -53.5000 EX 40 -4 7 271
1955234N11318 1955 57 NA NA EDITH 1955-09-02 09:00:00 ET 37.0548 -53.9849 main 1057 1045 P_____________ AL041955 37.0548 -53.9849 EX 37 -4 8 284
1955234N11318 1955 57 NA NA EDITH 1955-09-02 12:00:00 ET 37.2000 -54.5000 35 hurdat_atl main 1045 1004 O_____________ hurdat_atl AL041955 37.2000 -54.5000 EX 35 -4 9 291
1955234N11318 1955 57 NA NA EDITH 1955-09-02 15:00:00 ET 37.3848 -55.0424 main 1004 960 P_____________ AL041955 37.3848 -55.0424 EX 35 -4 10 295
1955234N11318 1955 57 NA NA EDITH 1955-09-02 18:00:00 ET 37.6000 -55.6000 35 hurdat_atl main 960 917 O_____________ hurdat_atl AL041955 37.6000 -55.6000 EX 35 -4 10 294
1955234N11318 1955 57 NA NA EDITH 1955-09-02 21:00:00 ET 37.8079 -56.2246 main 917 879 P_____________ AL041955 37.8079 -56.2246 EX 35 -4 10 295
1955234N11318 1955 57 NA NA EDITH 1955-09-03 00:00:00 ET 38.0000 -56.7000 35 hurdat_atl main 879 855 O_____________ hurdat_atl AL041955 38.0000 -56.7000 EX 35 -4 6 311
1955234N11318 1955 57 NA NA EDITH 1955-09-03 03:00:00 ET 38.1944 -56.7880 main 855 845 P_____________ AL041955 38.1944 -56.7880 EX 35 -4 3 346
1955234N11318 1955 57 NA NA EDITH 1955-09-03 06:00:00 ET 38.3000 -56.8000 35 hurdat_atl main 845 838 O_____________ hurdat_atl AL041955 38.3000 -56.8000 EX 35 -4 2 283
1955234N11318 1955 57 NA NA EDITH 1955-09-03 09:00:00 ET 38.2451 -57.0627 main 845 839 P_____________ AL041955 38.2451 -57.0627 EX 35 -4 5 247
1955234N11318 1955 57 NA NA EDITH 1955-09-03 12:00:00 ET 38.1000 -57.4000 35 hurdat_atl main 846 843 O_____________ hurdat_atl AL041955 38.1000 -57.4000 EX 35 -4 6 241
1955234N11318 1955 57 NA NA EDITH 1955-09-03 15:00:00 ET 37.9576 -57.7302 main 848 848 P_____________ AL041955 37.9576 -57.7302 EX 35 -4 6 238
1955234N11318 1955 57 NA NA EDITH 1955-09-03 18:00:00 ET 37.8000 -58.0000 35 hurdat_atl main 862 859 O_____________ hurdat_atl AL041955 37.8000 -58.0000 EX 35 -4 4 228
1955234N11318 1955 57 NA NA EDITH 1955-09-03 21:00:00 ET 37.6649 -58.1449 main 870 870 P_____________ AL041955 37.6649 -58.1449 EX 35 -4 3 207
1955234N11318 1955 57 NA NA EDITH 1955-09-04 00:00:00 ET 37.5000 -58.2000 35 hurdat_atl main 887 887 O_____________ hurdat_atl AL041955 37.5000 -58.2000 EX 35 -4 5 192
1955234N11318 1955 57 NA NA EDITH 1955-09-04 03:00:00 ET 37.2123 -58.2674 main 915 915 P_____________ AL041955 37.2123 -58.2674 EX 35 -4 5 178
1955234N11318 1955 57 NA NA EDITH 1955-09-04 06:00:00 ET 37.0000 -58.2000 35 hurdat_atl main 938 938 O_____________ hurdat_atl AL041955 37.0000 -58.2000 EX 35 -4 3 123
1955234N11318 1955 57 NA NA EDITH 1955-09-04 09:00:00 ET 37.0398 -57.9400 main 949 936 P_____________ AL041955 37.0398 -57.9400 EX 35 -4 6 70
1955234N11318 1955 57 NA NA EDITH 1955-09-04 12:00:00 ET 37.2000 -57.5000 35 hurdat_atl main 939 939 O_____________ hurdat_atl AL041955 37.2000 -57.5000 EX 35 -4 8 75
1955234N11318 1955 57 NA NA EDITH 1955-09-04 15:00:00 ET 37.2531 -56.9061 main 945 941 P_____________ AL041955 37.2531 -56.9061 EX 35 -4 10 73
1955234N11318 1955 57 NA NA EDITH 1955-09-04 18:00:00 ET 37.5000 -56.3000 35 hurdat_atl main 944 899 O_____________ hurdat_atl AL041955 37.5000 -56.3000 EX 35 -4 12 43
1955234N11318 1955 57 NA NA EDITH 1955-09-04 21:00:00 ET 38.1597 -55.8485 main 893 828 P_____________ AL041955 38.1597 -55.8485 EX 32 -4 16 23
1955234N11318 1955 57 NA NA EDITH 1955-09-05 00:00:00 ET 39.0000 -55.5000 30 hurdat_atl main 828 773 O_____________ hurdat_atl AL041955 39.0000 -55.5000 EX 30 -4 17 17
1955234N11318 1955 57 NA NA EDITH 1955-09-05 03:00:00 ET 39.7801 -55.2300 main 766 687 P_____________ AL041955 39.7801 -55.2300 EX 27 -4 16 14
1955234N11318 1955 57 NA NA EDITH 1955-09-05 06:00:00 ET 40.5000 -55.0000 25 hurdat_atl main 687 O_____________ hurdat_atl AL041955 40.5000 -55.0000 EX 25 -4 15 14

About IBTrACS Database

This database is a web-friendly format of International Best Track Archive for Climate Stewardship (IBTrACS), a global best track data archive curated by NOAA dating back to 1842.

Updated: 2021-12-03